»·PEaware :: N255EB KAJO-KVCV

N255EB :: KAJO-KVCV

FLIGHT INFORMATION

Flight Status: Arrived
Operator: Privately registered:
United States
More flights under this callsign
Pilot: Aidan C. (27000)
Aircraft: SOCATA TBM-900
(TBM9)
More flights by this aircraft type
Origin: KAJO Corona Mun
United States
Destination: KVCV Socal Logistics
United States
More flights between these airports :: More routes between these airports
Route: PDZ V442 APLES
File this flight plan on PilotEdge
Remarks: I-11
Altitude:
(Current/Filed)
9,000ft
Speed:
(Current/Filed)
220kts
Departed: 02-Dec-19 05:44 PM
Arrived: 02-Dec-19 06:29 PM
Distance/Time
Traveled:
43nm/0:45
Distance/Time
To Go:
Arrived

Flight Plot

Page will automatically refresh every two minutes.


Map Options




Map Legend


Flown Route
Filed Route
Departure Airport
Arrival Airport
Navaid (VOR, NDB)
Fix

Horizontal Profiles

Position Reports

Time Latitude Longitude Heading Altitude Ground
Speed
02-Dec-19 17:26 33.896961 -117.602020 2 536ft 0kts
02-Dec-19 17:27 33.896961 -117.602020 2 536ft 0kts
02-Dec-19 17:28 33.896961 -117.602020 2 536ft 0kts
02-Dec-19 17:29 33.896961 -117.602020 2 536ft 0kts
02-Dec-19 17:30 33.896961 -117.602020 2 536ft 0kts
02-Dec-19 17:31 33.896961 -117.602020 2 536ft 0kts
02-Dec-19 17:32 33.896961 -117.602020 2 536ft 0kts
02-Dec-19 17:33 33.896961 -117.602020 2 536ft 0kts
02-Dec-19 17:34 33.896961 -117.602020 2 536ft 0kts
02-Dec-19 17:35 33.896961 -117.602020 2 536ft 0kts
02-Dec-19 17:36 33.897033 -117.602052 318 536ft 4kts
02-Dec-19 17:37 33.897300 -117.599617 89 536ft 12kts
02-Dec-19 17:38 33.897298 -117.597674 49 536ft 0kts
02-Dec-19 17:39 33.897298 -117.597674 49 536ft 0kts
02-Dec-19 17:40 33.897298 -117.597674 49 536ft 0kts
02-Dec-19 17:41 33.897749 -117.597445 263 536ft 0kts
02-Dec-19 17:42 33.897736 -117.597770 268 536ft 30kts
02-Dec-19 17:43 33.898748 -117.635150 300 2314ft 129kts
02-Dec-19 17:44 33.922068 -117.621184 82 4200ft 134kts
02-Dec-19 17:45 33.920606 -117.575252 94 5442ft 142kts
02-Dec-19 17:46 33.918492 -117.526946 78 7001ft 148kts
02-Dec-19 17:47 33.946005 -117.490952 41 8590ft 151kts
02-Dec-19 17:48 33.982819 -117.488358 282 9029ft 186kts
02-Dec-19 17:49 33.943691 -117.511478 182 9006ft 194kts
02-Dec-19 17:50 33.921664 -117.546127 320 8999ft 198kts
02-Dec-19 17:51 33.970810 -117.519708 37 9003ft 213kts
02-Dec-19 17:52 34.016517 -117.474797 37 9000ft 213kts
02-Dec-19 17:53 34.067512 -117.440589 23 9001ft 210kts
02-Dec-19 17:54 34.116019 -117.411310 23 9001ft 209kts
02-Dec-19 17:55 34.168797 -117.379515 23 9002ft 208kts
02-Dec-19 17:56 34.218738 -117.349392 23 9001ft 208kts
02-Dec-19 17:57 34.270962 -117.317839 23 9010ft 206kts
02-Dec-19 17:59 34.363463 -117.260720 23 9032ft 170kts
02-Dec-19 18:00 34.404834 -117.235110 23 8923ft 167kts
02-Dec-19 18:01 34.445567 -117.210247 22 8927ft 161kts
02-Dec-19 18:02 34.485482 -117.186330 22 8938ft 158kts
02-Dec-19 18:03 34.525300 -117.163101 21 8967ft 167kts
02-Dec-19 18:04 34.571925 -117.141393 6 8979ft 187kts
02-Dec-19 18:05 34.626877 -117.145474 349 8003ft 209kts
02-Dec-19 18:06 34.683266 -117.166024 335 6823ft 213kts
02-Dec-19 18:07 34.730437 -117.199503 312 6544ft 173kts
02-Dec-19 18:08 34.758176 -117.241909 302 6565ft 151kts
02-Dec-19 18:09 34.776499 -117.286362 292 6568ft 147kts
02-Dec-19 18:10 34.786935 -117.336048 282 5503ft 153kts
02-Dec-19 18:11 34.777578 -117.372867 183 4889ft 126kts
02-Dec-19 18:12 34.742476 -117.376024 186 3972ft 120kts
02-Dec-19 18:13 34.706149 -117.378958 183 4489ft 169kts
02-Dec-19 18:14 34.655216 -117.385641 185 3621ft 188kts
02-Dec-19 18:15 34.604076 -117.387251 179 3400ft 189kts
02-Dec-19 18:16 34.555999 -117.386484 170 5700ft 143kts
02-Dec-19 18:18 34.526425 -117.414904 297 5998ft 218kts
02-Dec-19 18:19 34.563776 -117.475860 310 5980ft 225kts
02-Dec-19 18:20 34.603524 -117.534125 308 5944ft 218kts
02-Dec-19 18:21 34.645331 -117.579232 358 5033ft 194kts
02-Dec-19 18:22 34.654068 -117.531942 116 4468ft 173kts
02-Dec-19 18:23 34.633093 -117.484629 117 4163ft 144kts
02-Dec-19 18:24 34.613079 -117.437580 117 3806ft 160kts
02-Dec-19 18:25 34.622975 -117.395830 42 3836ft 129kts
02-Dec-19 18:26 34.646905 -117.366326 78 4100ft 107kts
02-Dec-19 18:27 34.627729 -117.342818 170 3750ft 107kts
02-Dec-19 18:28 34.604920 -117.361348 223 3038ft 96kts
02-Dec-19 18:29 34.593959 -117.372722 181 2858ft 3kts
02-Dec-19 18:30 34.592717 -117.372406 151 2860ft 14kts

Navigation Log

Ident Type
Flight plan parsing failed, navigation log unavailable